TimeEST,TemperatureF,Dew PointF,Humidity,Sea Level PressureIn,VisibilityMPH,Wind Direction,Wind SpeedMPH,Gust SpeedMPH,PrecipitationIn,Events,Conditions,WindDirDegrees,DateUTC
12:53 AM,37.0,26.1,65,30.03,10.0,ENE,4.6,-,N/A,,Overcast,70,2013-03-05 05:53:00
2:53 AM,36.0,28.9,76,30.01,10.0,East,3.5,-,N/A,,Overcast,90,2013-03-05 07:53:00
4:53 AM,35.1,30.0,82,29.96,10.0,East,8.1,-,N/A,,Overcast,90,2013-03-05 09:53:00
5:53 AM,36.0,30.0,79,29.96,10.0,ESE,5.8,-,N/A,,Overcast,110,2013-03-05 10:53:00
8:53 AM,36.0,30.0,79,29.92,10.0,East,10.4,-,N/A,,Overcast,90,2013-03-05 13:53:00
9:53 AM,39.0,30.9,73,29.89,10.0,East,13.8,-,N/A,,Overcast,100,2013-03-05 14:53:00
10:53 AM,39.0,28.9,67,29.88,10.0,ESE,5.8,-,N/A,,Overcast,120,2013-03-05 15:53:00
11:53 AM,37.0,33.1,86,29.83,4.0,East,10.4,-,0.00,,Overcast,90,2013-03-05 16:53:00
12:04 PM,37.4,33.8,87,29.81,2.5,East,10.4,-,0.00,,Overcast,100,2013-03-05 17:04:00
12:17 PM,37.4,33.8,87,29.79,3.0,East,11.5,-,0.00,,Overcast,90,2013-03-05 17:17:00
12:32 PM,37.4,33.8,87,29.78,2.5,East,11.5,-,0.01,Rain,Light Rain,90,2013-03-05 17:32:00
12:44 PM,37.4,33.8,87,29.78,3.0,East,13.8,-,0.01,Rain,Light Rain,90,2013-03-05 17:44:00
12:53 PM,37.0,34.0,89,29.79,6.0,East,11.5,-,0.01,,Overcast,100,2013-03-05 17:53:00
1:53 PM,37.0,35.1,93,29.75,4.0,East,9.2,-,0.00,Rain,Light Rain,90,2013-03-05 18:53:00
2:04 PM,37.4,35.6,93,29.71,6.0,East,6.9,-,0.00,Rain,Light Rain,80,2013-03-05 19:04:00
2:25 PM,37.4,35.6,93,29.70,1.8,East,11.5,-,0.00,,Overcast,80,2013-03-05 19:25:00
2:32 PM,37.4,35.6,93,29.69,1.5,East,9.2,-,0.01,Rain,Light Rain,90,2013-03-05 19:32:00
2:35 PM,37.4,35.6,93,29.69,2.0,East,9.2,-,0.01,Rain,Light Rain,90,2013-03-05 19:35:00
2:44 PM,37.4,35.6,93,29.69,5.0,East,8.1,-,0.01,Rain,Light Rain,90,2013-03-05 19:44:00
2:50 PM,37.4,35.6,93,29.69,2.5,East,5.8,-,0.01,Rain,Light Rain,80,2013-03-05 19:50:00
2:53 PM,37.0,35.1,93,29.70,2.0,East,6.9,-,0.01,Rain,Light Rain,80,2013-03-05 19:53:00
3:07 PM,37.4,35.6,93,29.67,4.0,East,8.1,-,0.00,,Overcast,80,2013-03-05 20:07:00
3:21 PM,37.4,35.6,93,29.66,2.0,East,9.2,-,0.01,Rain,Light Rain,80,2013-03-05 20:21:00
3:35 PM,37.4,35.6,93,29.66,3.0,East,9.2,-,0.01,Rain,Light Rain,90,2013-03-05 20:35:00
3:53 PM,37.0,35.1,93,29.66,2.0,East,11.5,-,0.01,,Overcast,80,2013-03-05 20:53:00
4:01 PM,37.4,35.6,93,29.64,1.5,East,11.5,-,0.00,,Overcast,80,2013-03-05 21:01:00
4:18 PM,37.4,35.6,93,29.63,2.0,East,8.1,-,0.01,Rain,Light Rain,80,2013-03-05 21:18:00
4:32 PM,37.4,35.6,93,29.62,3.0,East,5.8,-,0.01,Rain,Light Rain,80,2013-03-05 21:32:00
4:44 PM,37.4,35.6,93,29.62,2.5,ENE,5.8,-,0.03,Rain,Light Rain,70,2013-03-05 21:44:00
4:53 PM,37.0,36.0,96,29.64,3.0,Calm,Calm,-,0.03,Rain,Light Rain,0,2013-03-05 21:53:00
5:27 PM,37.4,35.6,93,29.61,2.5,NE,3.5,-,0.04,Rain,Rain,40,2013-03-05 22:27:00
5:41 PM,37.4,35.6,93,29.61,3.0,NNE,4.6,-,0.07,Rain,Rain,20,2013-03-05 22:41:00
5:53 PM,37.0,36.0,96,29.62,3.0,North,3.5,-,0.09,Rain,Rain,360,2013-03-05 22:53:00
6:53 PM,37.0,36.0,96,29.64,4.0,NW,5.8,-,0.09,Rain,Rain,320,2013-03-05 23:53:00
7:28 PM,35.6,35.6,100,29.63,4.0,NW,4.6,-,0.06,Rain,Rain,320,2013-03-06 00:28:00
7:49 PM,35.6,33.8,93,29.63,3.0,NW,5.8,-,0.10,Rain,Rain,320,2013-03-06 00:49:00
7:53 PM,35.1,34.0,96,29.64,3.0,NW,5.8,-,0.10,Rain,Rain,310,2013-03-06 00:53:00
8:00 PM,33.8,33.8,100,29.63,3.0,West,5.8,-,0.02,Snow,Light Snow,280,2013-03-06 01:00:00
8:06 PM,33.8,33.8,100,29.63,1.8,West,6.9,-,0.04,Snow,Light Snow,270,2013-03-06 01:06:00
8:11 PM,33.8,32.0,93,29.63,1.0,West,5.8,-,0.05,Snow,Light Snow,270,2013-03-06 01:11:00
8:21 PM,32.0,32.0,100,29.63,0.8,West,4.6,-,0.07,Snow,Light Snow,260,2013-03-06 01:21:00
8:53 PM,32.0,32.0,100,29.65,1.0,West,6.9,-,0.12,Snow,Light Snow,260,2013-03-06 01:53:00
9:19 PM,32.0,32.0,100,29.64,1.8,West,8.1,-,0.03,Snow,Light Snow,270,2013-03-06 02:19:00
9:39 PM,32.0,32.0,100,29.64,2.0,West,8.1,-,0.04,Snow,Light Snow,270,2013-03-06 02:39:00
9:53 PM,32.0,32.0,100,29.65,2.0,West,9.2,-,0.04,Snow,Light Snow,260,2013-03-06 02:53:00
10:12 PM,32.0,30.2,93,29.64,1.5,West,11.5,18.4,0.01,Snow,Light Snow,270,2013-03-06 03:12:00
10:53 PM,32.0,30.9,96,29.66,1.0,West,11.5,16.1,0.05,Snow,Light Snow,260,2013-03-06 03:53:00
11:15 PM,32.0,30.2,93,29.65,0.8,West,10.4,-,0.02,Snow,Light Snow,260,2013-03-06 04:15:00
11:22 PM,32.0,30.2,93,29.64,1.0,West,10.4,16.1,0.02,Snow,Light Snow,270,2013-03-06 04:22:00
11:35 PM,32.0,30.2,93,29.64,0.8,West,12.7,-,0.04,Snow,Light Snow,260,2013-03-06 04:35:00
11:53 PM,32.0,30.9,96,29.66,1.0,West,12.7,-,0.05,Snow,Light Snow,260,2013-03-06 04:53:00